createdAt,value
2019-03-01T00:01:06.927Z,47.66
2019-03-01T00:03:39.389Z,47.65
2019-03-01T00:06:22.399Z,47.67
2019-03-01T00:09:25.855Z,47.64
2019-03-01T00:12:45.568Z,47.65
2019-03-01T00:15:27.478Z,47.62
2019-03-01T00:18:38.953Z,47.55
2019-03-01T00:21:39.691Z,47.54
2019-03-01T00:24:46.598Z,47.54
2019-03-01T00:28:01.598Z,47.52
2019-03-01T00:31:28.512Z,47.52
2019-03-01T00:34:38.233Z,47.56
2019-03-01T00:37:33.660Z,47.56
2019-03-01T00:40:30.905Z,47.56
2019-03-01T00:43:38.259Z,47.59
2019-03-01T00:46:11.121Z,47.67
2019-03-01T00:48:42.320Z,47.75
2019-03-01T00:51:13.536Z,47.80
2019-03-01T00:53:44.797Z,47.89
2019-03-01T00:56:16.054Z,47.95
2019-03-01T00:58:47.389Z,48.01
2019-03-01T01:01:18.671Z,48.06
2019-03-01T01:03:49.977Z,48.09
2019-03-01T01:06:21.178Z,48.16
2019-03-01T01:08:52.472Z,48.21
2019-03-01T01:11:23.638Z,48.27
2019-03-01T01:13:54.898Z,48.32
2019-03-01T01:16:26.289Z,48.36
2019-03-01T01:18:57.568Z,48.36
2019-03-01T01:21:28.737Z,48.41
2019-03-01T01:23:59.961Z,48.44
2019-03-01T01:26:31.264Z,48.48
2019-03-01T01:29:02.422Z,48.51
2019-03-01T01:31:33.642Z,48.53
2019-03-01T01:34:04.833Z,48.65
2019-03-01T01:36:36.078Z,48.64
2019-03-01T01:39:08.762Z,48.69
2019-03-01T01:41:40.105Z,48.77
2019-03-01T01:44:11.291Z,48.81
2019-03-01T01:46:42.551Z,48.88
2019-03-01T01:49:13.773Z,48.99
2019-03-01T01:51:45.005Z,49.00
2019-03-01T01:54:16.211Z,49.09
2019-03-01T01:56:47.452Z,49.15
2019-03-01T01:59:18.616Z,49.26
2019-03-01T02:01:49.910Z,49.38
2019-03-01T02:04:21.136Z,49.36
2019-03-01T02:06:52.369Z,49.46
2019-03-01T02:09:26.014Z,49.59
2019-03-01T02:11:57.364Z,49.60
2019-03-01T02:14:28.616Z,49.74
2019-03-01T02:16:59.818Z,49.76
2019-03-01T02:19:31.021Z,49.86
2019-03-01T02:22:02.282Z,49.94
2019-03-01T02:24:33.557Z,49.98
2019-03-01T02:27:24.958Z,50.04
2019-03-01T02:29:56.333Z,50.04
2019-03-01T02:32:39.967Z,50.08
2019-03-01T02:35:13.359Z,50.15
2019-03-01T02:37:44.741Z,50.15
2019-03-01T02:40:15.916Z,50.17
2019-03-01T02:42:47.090Z,50.30
2019-03-01T02:45:19.785Z,50.39
2019-03-01T02:47:50.992Z,50.50
2019-03-01T02:50:22.304Z,50.59
2019-03-01T02:52:53.488Z,50.67
2019-03-01T02:55:24.713Z,50.64
2019-03-01T02:57:55.931Z,50.69
2019-03-01T03:00:28.323Z,50.75
2019-03-01T03:02:59.461Z,50.74
2019-03-01T03:05:30.749Z,50.78
2019-03-01T03:08:09.214Z,50.84
2019-03-01T03:10:40.723Z,50.92
2019-03-01T03:13:11.881Z,50.95
2019-03-01T03:15:47.853Z,51.00
2019-03-01T03:18:19.043Z,51.00
2019-03-01T03:20:50.204Z,51.08
2019-03-01T03:23:21.450Z,51.15
2019-03-01T03:25:52.796Z,51.22
2019-03-01T03:28:24.026Z,51.24
2019-03-01T03:30:55.162Z,51.25
2019-03-01T03:33:26.365Z,51.28
2019-03-01T03:35:57.555Z,51.27
2019-03-01T03:38:28.940Z,51.33
2019-03-01T03:41:00.328Z,51.41
2019-03-01T03:43:31.522Z,51.45
2019-03-01T03:46:02.714Z,51.52
2019-03-01T03:48:36.021Z,51.57
2019-03-01T03:51:06.809Z,51.62
2019-03-01T03:53:37.985Z,51.66
2019-03-01T03:56:09.232Z,51.69
2019-03-01T03:58:40.388Z,51.78
2019-03-01T04:01:11.669Z,51.81
2019-03-01T04:03:42.883Z,51.86
2019-03-01T04:06:14.165Z,51.88
2019-03-01T04:08:45.426Z,51.90
2019-03-01T04:11:16.661Z,51.99
2019-03-01T04:13:48.805Z,51.92
2019-03-01T04:16:20.134Z,51.95
2019-03-01T04:18:51.431Z,51.95
2019-03-01T04:21:22.668Z,51.94
2019-03-01T04:23:53.848Z,51.99
2019-03-01T04:26:25.090Z,52.01
2019-03-01T04:28:56.247Z,52.06
2019-03-01T04:31:27.422Z,52.09
2019-03-01T04:33:58.593Z,52.14
2019-03-01T04:36:29.866Z,52.21
2019-03-01T04:39:01.082Z,52.18
2019-03-01T04:41:34.248Z,52.20
2019-03-01T04:44:05.498Z,52.24
2019-03-01T04:46:36.634Z,52.22
2019-03-01T04:49:08.050Z,52.28
2019-03-01T04:51:40.259Z,52.27
2019-03-01T04:54:11.736Z,52.31
2019-03-01T04:56:43.047Z,52.33
2019-03-01T04:59:14.478Z,52.39
2019-03-01T05:01:45.640Z,52.41
2019-03-01T05:04:16.902Z,52.44
2019-03-01T05:06:48.172Z,52.48
2019-03-01T05:09:19.432Z,52.51
2019-03-01T05:11:50.664Z,52.57
2019-03-01T05:14:21.869Z,52.60
2019-03-01T05:16:53.047Z,52.66
2019-03-01T05:19:24.199Z,52.66
2019-03-01T05:21:55.399Z,52.72
2019-03-01T05:24:26.774Z,52.74
2019-03-01T05:26:57.983Z,52.80
2019-03-01T05:29:29.390Z,52.84
2019-03-01T05:32:01.720Z,52.82
2019-03-01T05:34:33.115Z,52.89
2019-03-01T05:37:04.370Z,52.90
2019-03-01T05:39:35.579Z,52.92
2019-03-01T05:42:06.755Z,52.96
2019-03-01T05:44:38.001Z,53.01
2019-03-01T05:47:09.160Z,52.96
2019-03-01T05:49:42.027Z,53.02
2019-03-01T05:52:13.305Z,53.04
2019-03-01T05:54:46.102Z,53.05
2019-03-01T05:57:17.329Z,53.08
2019-03-01T05:59:48.583Z,53.14
2019-03-01T06:02:56.830Z,53.18
2019-03-01T06:05:37.804Z,53.19
2019-03-01T06:08:53.315Z,53.17
2019-03-01T06:12:01.615Z,53.18
2019-03-01T06:15:04.580Z,53.19
2019-03-01T06:18:21.051Z,53.17
2019-03-01T06:21:17.598Z,53.16
2019-03-01T06:24:10.330Z,53.16
2019-03-01T06:27:06.880Z,53.21
2019-03-01T06:29:58.307Z,53.27
2019-03-01T06:33:21.010Z,53.32
2019-03-01T06:36:10.178Z,53.36
2019-03-01T06:39:32.981Z,53.46
2019-03-01T06:42:11.763Z,53.41
2019-03-01T06:45:23.606Z,53.52
2019-03-01T06:47:54.822Z,53.49
2019-03-01T06:50:39.658Z,53.57
2019-03-01T06:53:10.846Z,53.60
2019-03-01T06:56:03.065Z,53.70
2019-03-01T06:58:37.023Z,53.72
2019-03-01T07:01:29.989Z,53.80
2019-03-01T07:04:06.928Z,53.84
2019-03-01T07:06:38.102Z,53.93
2019-03-01T07:09:09.420Z,53.92
2019-03-01T07:11:40.929Z,53.97
2019-03-01T07:14:12.130Z,54.03
2019-03-01T07:16:43.365Z,54.06
2019-03-01T07:19:14.696Z,54.08
2019-03-01T07:21:46.910Z,54.17
2019-03-01T07:24:18.266Z,54.19
2019-03-01T07:26:49.587Z,54.20
2019-03-01T07:29:20.801Z,54.27
2019-03-01T07:31:53.053Z,54.29
2019-03-01T07:34:24.243Z,54.36
2019-03-01T07:36:56.610Z,54.44
2019-03-01T07:39:27.870Z,54.46
2019-03-01T07:41:59.036Z,54.54
2019-03-01T07:44:30.189Z,54.66
2019-03-01T07:47:01.330Z,54.78
2019-03-01T07:49:32.547Z,55.11
2019-03-01T07:52:04.970Z,55.14
2019-03-01T07:54:36.641Z,55.58
2019-03-01T07:57:07.867Z,56.42
2019-03-01T07:59:39.526Z,56.56
2019-03-01T08:02:11.788Z,56.55
2019-03-01T08:04:43.005Z,56.96
2019-03-01T08:07:14.397Z,56.82
2019-03-01T08:09:45.754Z,56.66
2019-03-01T08:12:16.846Z,56.71
2019-03-01T08:14:48.040Z,56.82
2019-03-01T08:17:19.228Z,56.81
2019-03-01T08:19:50.354Z,56.71
2019-03-01T08:22:25.107Z,57.47
2019-03-01T08:24:55.793Z,57.03
2019-03-01T08:27:26.926Z,57.09
2019-03-01T08:29:58.060Z,57.01
2019-03-01T08:32:30.721Z,57.02
2019-03-01T08:35:02.186Z,57.16
2019-03-01T08:37:33.433Z,57.08
2019-03-01T08:40:07.342Z,57.78
2019-03-01T08:42:38.683Z,57.57
2019-03-01T08:45:11.545Z,57.57
2019-03-01T08:47:42.755Z,57.69
2019-03-01T08:50:15.610Z,58.53
2019-03-01T08:52:46.906Z,58.38
2019-03-01T08:55:18.813Z,58.04
2019-03-01T08:57:50.112Z,58.22
2019-03-01T09:00:26.996Z,57.96
2019-03-01T09:02:58.457Z,58.06
2019-03-01T09:05:29.676Z,57.89
2019-03-01T09:08:01.086Z,57.67
2019-03-01T09:10:33.635Z,57.88
2019-03-01T09:13:04.902Z,57.87
2019-03-01T09:15:36.896Z,57.75
2019-03-01T09:18:08.220Z,57.70
2019-03-01T09:20:39.445Z,57.87
2019-03-01T09:23:21.106Z,57.62
2019-03-01T09:25:44.756Z,57.71
2019-03-01T09:28:16.642Z,57.91
2019-03-01T09:30:47.845Z,57.98
2019-03-01T09:33:21.257Z,57.77
2019-03-01T09:35:55.966Z,57.79
2019-03-01T09:38:27.211Z,57.74
2019-03-01T09:41:01.206Z,57.65
2019-03-01T09:43:31.412Z,57.47
2019-03-01T09:46:02.630Z,57.54
2019-03-01T09:48:33.880Z,57.38
2019-03-01T09:51:07.280Z,57.31
2019-03-01T09:53:38.000Z,57.23
2019-03-01T09:56:09.663Z,57.24
2019-03-01T09:58:42.207Z,57.38
2019-03-01T10:01:15.876Z,57.49
2019-03-01T10:03:47.943Z,57.55
2019-03-01T10:06:19.198Z,57.55
2019-03-01T10:08:50.410Z,57.59
2019-03-01T10:11:21.732Z,57.90
2019-03-01T10:13:52.932Z,58.09
2019-03-01T10:16:24.139Z,58.01
2019-03-01T10:18:55.343Z,58.12
2019-03-01T10:21:26.729Z,57.96
2019-03-01T10:23:57.893Z,58.17
2019-03-01T10:26:30.163Z,57.98
2019-03-01T10:29:01.426Z,58.04
2019-03-01T10:31:32.653Z,58.07
2019-03-01T10:34:03.884Z,57.87
2019-03-01T10:36:35.082Z,57.73
2019-03-01T10:39:11.757Z,57.70
2019-03-01T10:41:43.256Z,57.57
2019-03-01T10:44:14.432Z,57.62
2019-03-01T10:46:45.779Z,57.67
2019-03-01T10:49:16.985Z,57.54
2019-03-01T10:51:48.635Z,57.60
2019-03-01T10:54:19.817Z,57.54
2019-03-01T10:56:51.078Z,57.47
2019-03-01T10:59:22.287Z,57.37
2019-03-01T11:01:53.507Z,57.31
2019-03-01T11:04:24.713Z,57.30
2019-03-01T11:06:56.239Z,57.20
2019-03-01T11:09:27.435Z,57.18
2019-03-01T11:11:58.652Z,57.19
2019-03-01T11:14:29.832Z,57.09
2019-03-01T11:17:01.186Z,57.09
2019-03-01T11:19:32.458Z,57.02
2019-03-01T11:22:03.775Z,56.92
2019-03-01T11:24:35.232Z,56.87
2019-03-01T11:27:12.810Z,56.92
2019-03-01T11:29:40.670Z,56.87
2019-03-01T11:32:11.897Z,56.98
2019-03-01T11:34:43.114Z,57.15
2019-03-01T11:37:14.447Z,57.14
2019-03-01T11:39:45.689Z,57.28
2019-03-01T11:42:17.643Z,57.24
2019-03-01T11:44:48.955Z,57.46
2019-03-01T11:47:20.222Z,57.30
2019-03-01T11:49:51.509Z,57.40
2019-03-01T11:52:22.799Z,57.40
2019-03-01T11:54:54.076Z,57.51
2019-03-01T11:57:25.338Z,57.61
2019-03-01T11:59:56.804Z,57.76
2019-03-01T12:02:28.048Z,57.86
2019-03-01T12:04:59.357Z,57.86
2019-03-01T12:07:30.589Z,58.15
2019-03-01T12:10:01.853Z,58.30
2019-03-01T12:12:33.420Z,58.31
2019-03-01T12:15:04.822Z,58.20
2019-03-01T12:17:36.571Z,58.26
2019-03-01T12:20:11.136Z,58.06
2019-03-01T12:22:42.359Z,57.92
2019-03-01T12:25:13.697Z,57.82
2019-03-01T12:27:44.844Z,57.67
2019-03-01T12:30:19.043Z,57.56
2019-03-01T12:32:50.219Z,57.88
2019-03-01T12:35:21.405Z,57.67
2019-03-01T12:37:52.693Z,58.10
2019-03-01T12:40:25.151Z,57.85
2019-03-01T12:42:56.621Z,57.83
2019-03-01T12:45:27.829Z,57.70
2019-03-01T12:47:59.087Z,57.63
2019-03-01T12:50:30.286Z,57.54
2019-03-01T12:53:01.527Z,57.60
2019-03-01T12:55:32.872Z,57.48
2019-03-01T12:58:04.262Z,57.39
2019-03-01T13:00:35.510Z,57.33
2019-03-01T13:03:08.990Z,57.23
2019-03-01T13:05:39.723Z,57.19
2019-03-01T13:08:12.523Z,57.08
2019-03-01T13:10:43.829Z,57.03
2019-03-01T13:13:15.160Z,56.96
2019-03-01T13:15:49.521Z,56.94
2019-03-01T13:18:19.298Z,56.87
2019-03-01T13:20:50.597Z,56.85
2019-03-01T13:23:21.814Z,56.85
2019-03-01T13:25:53.123Z,56.80
2019-03-01T13:28:24.365Z,56.85
2019-03-01T13:30:55.624Z,56.84
2019-03-01T13:33:26.868Z,56.75
2019-03-01T13:35:59.905Z,56.69
2019-03-01T13:38:34.075Z,56.67
2019-03-01T13:41:04.166Z,56.71
2019-03-01T13:43:35.380Z,56.76
2019-03-01T13:46:06.702Z,56.73
2019-03-01T13:48:38.303Z,56.72
2019-03-01T13:51:09.678Z,56.71
2019-03-01T13:53:48.720Z,56.78
2019-03-01T13:56:13.979Z,56.66
2019-03-01T13:58:46.534Z,56.67
2019-03-01T14:01:17.958Z,56.62
2019-03-01T14:03:49.429Z,56.63
2019-03-01T14:06:20.809Z,56.67
2019-03-01T14:08:51.984Z,56.62
2019-03-01T14:11:23.554Z,56.57
2019-03-01T14:13:56.098Z,56.67
2019-03-01T14:16:28.968Z,56.58
2019-03-01T14:19:00.354Z,56.63
2019-03-01T14:21:33.044Z,56.64
2019-03-01T14:24:04.809Z,56.77
2019-03-01T14:26:35.973Z,56.75
2019-03-01T14:29:07.176Z,56.99
2019-03-01T14:31:39.722Z,57.10
2019-03-01T14:34:11.795Z,57.27
2019-03-01T14:36:44.006Z,57.28
2019-03-01T14:39:17.588Z,57.48
2019-03-01T14:41:49.093Z,57.93
2019-03-01T14:44:20.426Z,58.23
2019-03-01T14:46:52.920Z,58.15
2019-03-01T14:49:24.533Z,58.05
2019-03-01T14:51:55.759Z,58.29
2019-03-01T14:54:26.916Z,58.26
2019-03-01T14:57:03.472Z,58.22
2019-03-01T14:59:54.453Z,58.03
2019-03-01T15:02:41.028Z,57.92
2019-03-01T15:05:17.783Z,57.83
2019-03-01T15:07:46.437Z,57.68
2019-03-01T15:10:17.854Z,57.68
2019-03-01T15:12:49.049Z,57.57
2019-03-01T15:15:22.903Z,57.50
2019-03-01T15:17:53.851Z,57.40
2019-03-01T15:20:25.314Z,57.34
2019-03-01T15:22:56.596Z,57.32
2019-03-01T15:25:27.737Z,57.30
2019-03-01T15:27:58.948Z,57.37
2019-03-01T15:30:30.137Z,57.41
2019-03-01T15:33:01.588Z,57.52
2019-03-01T15:35:36.364Z,57.56
2019-03-01T15:38:06.856Z,57.57
2019-03-01T15:40:38.047Z,57.63
2019-03-01T15:43:09.337Z,57.47
2019-03-01T15:45:40.672Z,57.41
2019-03-01T15:48:11.930Z,57.32
2019-03-01T15:50:43.270Z,57.32
2019-03-01T15:53:14.631Z,57.23
2019-03-01T15:55:45.865Z,57.10
2019-03-01T15:58:17.322Z,57.03
2019-03-01T16:00:48.677Z,57.01
2019-03-01T16:03:20.002Z,56.86
2019-03-01T16:05:51.235Z,56.76
2019-03-01T16:08:22.484Z,56.49
2019-03-01T16:10:53.884Z,56.20
2019-03-01T16:13:25.152Z,56.03
2019-03-01T16:15:56.659Z,55.87
2019-03-01T16:18:27.858Z,55.79
2019-03-01T16:21:01.998Z,55.54
2019-03-01T16:23:32.093Z,55.37
2019-03-01T16:26:04.457Z,55.34
2019-03-01T16:28:37.421Z,55.19
2019-03-01T16:31:08.795Z,55.04
2019-03-01T16:33:40.060Z,55.11
2019-03-01T16:36:17.432Z,55.13
2019-03-01T16:38:49.135Z,55.03
2019-03-01T16:41:20.376Z,54.92
2019-03-01T16:43:51.637Z,54.88
2019-03-01T16:46:22.924Z,54.76
2019-03-01T16:48:54.174Z,54.60
2019-03-01T16:51:25.512Z,54.57
2019-03-01T16:53:58.237Z,54.61
2019-03-01T16:56:29.725Z,54.57
2019-03-01T16:59:03.837Z,54.57
2019-03-01T17:01:36.062Z,54.58
2019-03-01T17:04:07.252Z,54.39
2019-03-01T17:06:38.540Z,54.37
2019-03-01T17:09:11.753Z,54.23
2019-03-01T17:11:43.016Z,54.25
2019-03-01T17:14:15.874Z,54.21
2019-03-01T17:16:47.506Z,54.14
2019-03-01T17:19:20.593Z,54.08
2019-03-01T17:21:51.982Z,54.10
2019-03-01T17:24:23.333Z,54.08
2019-03-01T17:26:54.594Z,53.96
2019-03-01T17:29:25.800Z,54.01
2019-03-01T17:31:58.819Z,54.07
2019-03-01T17:34:30.013Z,54.12
2019-03-01T17:37:01.299Z,54.04
2019-03-01T17:39:32.544Z,53.97
2019-03-01T17:42:03.737Z,53.89
2019-03-01T17:44:35.067Z,53.86
2019-03-01T17:47:09.644Z,53.78
2019-03-01T17:49:42.082Z,53.75
2019-03-01T17:52:13.448Z,53.70
2019-03-01T17:54:44.771Z,53.67
2019-03-01T17:57:17.009Z,53.73
2019-03-01T17:59:49.303Z,53.65
2019-03-01T18:02:20.657Z,53.69
2019-03-01T18:04:51.865Z,53.66
2019-03-01T18:07:23.724Z,53.62
2019-03-01T18:09:57.249Z,53.57
2019-03-01T18:12:28.353Z,53.48
2019-03-01T18:14:59.567Z,53.50
2019-03-01T18:17:32.909Z,53.50
2019-03-01T18:20:03.958Z,53.48
2019-03-01T18:22:35.225Z,53.54
2019-03-01T18:25:07.927Z,53.50
2019-03-01T18:27:42.200Z,53.44
2019-03-01T18:30:19.834Z,53.30
2019-03-01T18:32:51.030Z,53.31
2019-03-01T18:35:23.584Z,53.31
2019-03-01T18:37:56.098Z,53.27
2019-03-01T18:40:27.418Z,53.30
2019-03-01T18:42:58.687Z,53.42
2019-03-01T18:45:29.907Z,53.51
2019-03-01T18:48:01.111Z,53.56
2019-03-01T18:50:32.428Z,53.55
2019-03-01T18:53:04.221Z,53.55
2019-03-01T18:55:35.682Z,53.56
2019-03-01T18:58:06.912Z,53.58
2019-03-01T19:00:39.206Z,53.61
2019-03-01T19:03:10.655Z,53.59
2019-03-01T19:05:42.152Z,53.62
2019-03-01T19:08:13.982Z,53.58
2019-03-01T19:10:53.905Z,53.58
2019-03-01T19:13:20.857Z,53.58
2019-03-01T19:15:54.423Z,53.58
2019-03-01T19:18:24.596Z,53.57
2019-03-01T19:20:55.895Z,53.55
2019-03-01T19:23:29.412Z,53.53
2019-03-01T19:26:01.648Z,53.50
2019-03-01T19:28:33.243Z,53.47
2019-03-01T19:31:05.407Z,53.47
2019-03-01T19:33:37.853Z,53.47
2019-03-01T19:36:10.171Z,53.45
2019-03-01T19:38:41.748Z,53.47
2019-03-01T19:41:13.197Z,53.42
2019-03-01T19:43:45.359Z,53.44
2019-03-01T19:46:17.632Z,53.46
2019-03-01T19:48:48.921Z,53.46
2019-03-01T19:51:20.144Z,53.54
2019-03-01T19:53:51.791Z,53.64
2019-03-01T19:56:25.884Z,53.73
2019-03-01T19:58:56.531Z,53.88
2019-03-01T20:01:27.996Z,53.92
2019-03-01T20:03:59.218Z,53.91
2019-03-01T20:06:30.491Z,53.90
2019-03-01T20:09:04.515Z,53.87
2019-03-01T20:11:36.585Z,53.79
2019-03-01T20:14:07.898Z,53.72
2019-03-01T20:16:39.125Z,53.68
2019-03-01T20:19:10.571Z,53.60
2019-03-01T20:21:44.133Z,53.57
2019-03-01T20:24:16.291Z,53.53
2019-03-01T20:26:47.688Z,53.51
2019-03-01T20:29:21.258Z,53.49
2019-03-01T20:31:52.703Z,53.43
2019-03-01T20:34:24.087Z,53.45
2019-03-01T20:36:55.503Z,53.51
2019-03-01T20:39:26.873Z,53.63
2019-03-01T20:41:58.221Z,53.67
2019-03-01T20:44:29.628Z,53.64
2019-03-01T20:47:00.867Z,53.74
2019-03-01T20:49:32.319Z,53.89
2019-03-01T20:52:03.924Z,54.02
2019-03-01T20:54:35.335Z,54.12
2019-03-01T20:57:06.585Z,54.25
2019-03-01T20:59:39.175Z,54.32
2019-03-01T21:02:13.160Z,54.75
2019-03-01T21:04:52.996Z,54.71
2019-03-01T21:07:16.632Z,54.88
2019-03-01T21:09:47.853Z,54.82
2019-03-01T21:12:20.252Z,54.75
2019-03-01T21:14:53.385Z,54.74
2019-03-01T21:17:24.977Z,54.79
2019-03-01T21:19:57.694Z,54.78
2019-03-01T21:22:28.985Z,54.69
2019-03-01T21:25:03.167Z,55.05
2019-03-01T21:27:33.248Z,55.05
2019-03-01T21:30:05.268Z,54.99
2019-03-01T21:32:39.273Z,55.08
2019-03-01T21:35:13.857Z,54.97
2019-03-01T21:37:43.604Z,55.22
2019-03-01T21:40:17.299Z,55.24
2019-03-01T21:42:48.592Z,55.37
2019-03-01T21:45:21.530Z,55.23
2019-03-01T21:47:52.975Z,55.26
2019-03-01T21:50:24.197Z,55.34
2019-03-01T21:52:55.432Z,55.39
2019-03-01T21:55:28.688Z,55.60
2019-03-01T21:57:59.662Z,55.67
2019-03-01T22:00:31.546Z,56.22
2019-03-01T22:03:02.882Z,55.92
2019-03-01T22:05:34.139Z,55.82
2019-03-01T22:08:05.355Z,55.97
2019-03-01T22:10:38.932Z,56.22
2019-03-01T22:13:09.568Z,56.21
2019-03-01T22:15:40.854Z,56.33
2019-03-01T22:18:12.101Z,56.42
2019-03-01T22:20:44.807Z,56.41
2019-03-01T22:23:16.656Z,56.28
2019-03-01T22:25:47.860Z,56.52
2019-03-01T22:28:21.203Z,56.73
2019-03-01T22:30:52.167Z,56.90
2019-03-01T22:33:23.444Z,56.78
2019-03-01T22:35:54.711Z,57.34
2019-03-01T22:38:25.972Z,57.10
2019-03-01T22:41:00.621Z,56.81
2019-03-01T22:43:30.235Z,57.12
2019-03-01T22:46:01.529Z,56.98
2019-03-01T22:48:32.872Z,56.75
2019-03-01T22:51:04.261Z,57.05
2019-03-01T22:53:38.567Z,56.90
2019-03-01T22:56:08.692Z,56.83
2019-03-01T22:58:41.561Z,56.80
2019-03-01T23:01:29.489Z,57.00
2019-03-01T23:04:03.665Z,57.04
2019-03-01T23:06:34.863Z,57.04
2019-03-01T23:09:10.710Z,56.89
2019-03-01T23:11:45.311Z,57.11
2019-03-01T23:14:16.583Z,56.91
2019-03-01T23:16:50.678Z,56.65
2019-03-01T23:19:21.001Z,56.59
2019-03-01T23:21:52.364Z,56.68
2019-03-01T23:24:23.557Z,56.59
2019-03-01T23:26:56.795Z,56.31
2019-03-01T23:29:27.824Z,56.49
2019-03-01T23:31:59.110Z,56.32
2019-03-01T23:34:30.354Z,56.41
2019-03-01T23:37:03.510Z,56.52
2019-03-01T23:39:34.745Z,56.23
2019-03-01T23:42:06.323Z,56.36
2019-03-01T23:44:38.707Z,56.39
2019-03-01T23:47:10.441Z,56.50
2019-03-01T23:49:41.618Z,56.61
2019-03-01T23:52:12.875Z,56.82
2019-03-01T23:54:44.349Z,56.56
2019-03-01T23:57:16.449Z,56.45
2019-03-01T23:59:47.710Z,56.42
